sensor_id;sensor_type;location;lat;lon;timestamp;temperature;humidity
29571;DHT22;16814;52.118;11.436;2024-03-08T00:02:38;0.50;99.90
29571;DHT22;16814;52.118;11.436;2024-03-08T00:05:07;0.50;99.90
29571;DHT22;16814;52.118;11.436;2024-03-08T00:07:40;0.60;99.90
29571;DHT22;16814;52.118;11.436;2024-03-08T00:10:09;0.50;99.90
29571;DHT22;16814;52.118;11.436;2024-03-08T00:12:42;0.40;99.90
29571;DHT22;16814;52.118;11.436;2024-03-08T00:15:17;0.50;99.90
29571;DHT22;16814;52.118;11.436;2024-03-08T00:17:46;0.60;99.90
29571;DHT22;16814;52.118;11.436;2024-03-08T00:20:15;0.60;99.90
29571;DHT22;16814;52.118;11.436;2024-03-08T00:22:44;0.60;99.90
29571;DHT22;16814;52.118;11.436;2024-03-08T00:25:13;0.50;99.90
29571;DHT22;16814;52.118;11.436;2024-03-08T00:27:41;0.60;99.90
29571;DHT22;16814;52.118;11.436;2024-03-08T00:30:08;0.50;99.90
29571;DHT22;16814;52.118;11.436;2024-03-08T00:32:35;0.40;99.90
29571;DHT22;16814;52.118;11.436;2024-03-08T00:35:03;0.40;99.90
29571;DHT22;16814;52.118;11.436;2024-03-08T00:37:30;0.40;99.90
29571;DHT22;16814;52.118;11.436;2024-03-08T00:39:57;0.50;99.90
29571;DHT22;16814;52.118;11.436;2024-03-08T00:42:24;0.60;99.90
29571;DHT22;16814;52.118;11.436;2024-03-08T00:44:53;0.50;99.90
29571;DHT22;16814;52.118;11.436;2024-03-08T00:47:21;0.50;99.90
29571;DHT22;16814;52.118;11.436;2024-03-08T00:49:49;0.50;99.90
29571;DHT22;16814;52.118;11.436;2024-03-08T00:52:16;0.60;99.90
29571;DHT22;16814;52.118;11.436;2024-03-08T00:54:45;0.50;99.90
29571;DHT22;16814;52.118;11.436;2024-03-08T00:57:11;0.70;99.90
29571;DHT22;16814;52.118;11.436;2024-03-08T00:59:41;0.50;99.90
29571;DHT22;16814;52.118;11.436;2024-03-08T01:02:08;0.40;99.90
29571;DHT22;16814;52.118;11.436;2024-03-08T01:04:34;0.40;99.90
29571;DHT22;16814;52.118;11.436;2024-03-08T01:07:01;0.20;99.90
29571;DHT22;16814;52.118;11.436;2024-03-08T01:09:27;0.20;99.90
29571;DHT22;16814;52.118;11.436;2024-03-08T01:11:55;0.00;99.90
29571;DHT22;16814;52.118;11.436;2024-03-08T01:14:23;0.00;99.90
29571;DHT22;16814;52.118;11.436;2024-03-08T01:16:51;0.00;99.90
29571;DHT22;16814;52.118;11.436;2024-03-08T01:19:18;0.10;99.90
29571;DHT22;16814;52.118;11.436;2024-03-08T01:21:44;0.10;99.90
29571;DHT22;16814;52.118;11.436;2024-03-08T01:24:11;0.10;99.90
29571;DHT22;16814;52.118;11.436;2024-03-08T01:26:37;0.20;99.90
29571;DHT22;16814;52.118;11.436;2024-03-08T01:29:05;0.40;99.90
29571;DHT22;16814;52.118;11.436;2024-03-08T01:31:31;0.20;99.90
29571;DHT22;16814;52.118;11.436;2024-03-08T01:33:58;0.20;99.90
29571;DHT22;16814;52.118;11.436;2024-03-08T01:36:26;0.30;99.90
29571;DHT22;16814;52.118;11.436;2024-03-08T01:38:55;0.20;99.90
29571;DHT22;16814;52.118;11.436;2024-03-08T01:41:21;0.40;99.90
29571;DHT22;16814;52.118;11.436;2024-03-08T01:43:48;0.00;99.90
29571;DHT22;16814;52.118;11.436;2024-03-08T01:46:19;-0.10;99.90
29571;DHT22;16814;52.118;11.436;2024-03-08T01:48:51;-0.10;99.90
29571;DHT22;16814;52.118;11.436;2024-03-08T01:51:19;-0.20;99.90
29571;DHT22;16814;52.118;11.436;2024-03-08T01:53:47;-0.30;99.90
29571;DHT22;16814;52.118;11.436;2024-03-08T01:56:14;-0.20;99.90
29571;DHT22;16814;52.118;11.436;2024-03-08T01:58:46;-0.20;99.90
29571;DHT22;16814;52.118;11.436;2024-03-08T02:01:13;-0.20;99.90
29571;DHT22;16814;52.118;11.436;2024-03-08T02:03:45;-0.20;99.90
29571;DHT22;16814;52.118;11.436;2024-03-08T02:06:13;-0.10;99.90
29571;DHT22;16814;52.118;11.436;2024-03-08T02:08:41;-0.10;99.90
29571;DHT22;16814;52.118;11.436;2024-03-08T02:11:08;-0.10;99.90
29571;DHT22;16814;52.118;11.436;2024-03-08T02:13:35;-0.10;99.90
29571;DHT22;16814;52.118;11.436;2024-03-08T02:16:04;-0.10;99.90
29571;DHT22;16814;52.118;11.436;2024-03-08T02:18:30;-0.20;99.90
29571;DHT22;16814;52.118;11.436;2024-03-08T02:20:58;-0.30;99.90
29571;DHT22;16814;52.118;11.436;2024-03-08T02:23:27;-0.30;99.90
29571;DHT22;16814;52.118;11.436;2024-03-08T02:25:55;-0.40;99.90
29571;DHT22;16814;52.118;11.436;2024-03-08T02:28:24;-0.40;99.90
29571;DHT22;16814;52.118;11.436;2024-03-08T02:30:52;-0.40;99.90
29571;DHT22;16814;52.118;11.436;2024-03-08T02:33:32;-0.40;99.90
29571;DHT22;16814;52.118;11.436;2024-03-08T02:35:59;-0.40;99.90
29571;DHT22;16814;52.118;11.436;2024-03-08T02:38:26;-0.40;99.90
29571;DHT22;16814;52.118;11.436;2024-03-08T02:40:55;-0.40;99.90
29571;DHT22;16814;52.118;11.436;2024-03-08T02:43:23;-0.40;99.90
29571;DHT22;16814;52.118;11.436;2024-03-08T02:45:51;-0.30;99.90
29571;DHT22;16814;52.118;11.436;2024-03-08T02:48:19;-0.30;99.90
29571;DHT22;16814;52.118;11.436;2024-03-08T02:51:07;-0.40;99.90
29571;DHT22;16814;52.118;11.436;2024-03-08T02:53:34;-0.40;99.90
29571;DHT22;16814;52.118;11.436;2024-03-08T02:56:00;-0.30;99.90
29571;DHT22;16814;52.118;11.436;2024-03-08T02:58:27;-0.40;99.90
29571;DHT22;16814;52.118;11.436;2024-03-08T03:00:53;-0.40;99.90
29571;DHT22;16814;52.118;11.436;2024-03-08T03:03:35;-0.50;99.90
29571;DHT22;16814;52.118;11.436;2024-03-08T03:06:02;-0.60;99.90
29571;DHT22;16814;52.118;11.436;2024-03-08T03:08:28;-0.70;99.90
29571;DHT22;16814;52.118;11.436;2024-03-08T03:10:55;-0.70;99.90
29571;DHT22;16814;52.118;11.436;2024-03-08T03:13:23;-0.70;99.90
29571;DHT22;16814;52.118;11.436;2024-03-08T03:15:50;-0.70;99.90
29571;DHT22;16814;52.118;11.436;2024-03-08T03:18:16;-0.80;99.90
29571;DHT22;16814;52.118;11.436;2024-03-08T03:20:44;-0.80;99.90
29571;DHT22;16814;52.118;11.436;2024-03-08T03:23:10;-0.90;99.90
29571;DHT22;16814;52.118;11.436;2024-03-08T03:25:39;-0.90;99.90
29571;DHT22;16814;52.118;11.436;2024-03-08T03:28:06;-0.80;99.90
29571;DHT22;16814;52.118;11.436;2024-03-08T03:30:35;-0.80;99.90
29571;DHT22;16814;52.118;11.436;2024-03-08T03:33:03;-0.70;99.90
29571;DHT22;16814;52.118;11.436;2024-03-08T03:35:39;-0.70;99.90
29571;DHT22;16814;52.118;11.436;2024-03-08T03:38:08;-0.70;99.90
29571;DHT22;16814;52.118;11.436;2024-03-08T03:40:37;-0.70;99.90
29571;DHT22;16814;52.118;11.436;2024-03-08T03:43:04;-0.70;99.90
29571;DHT22;16814;52.118;11.436;2024-03-08T03:45:31;-0.60;99.90
29571;DHT22;16814;52.118;11.436;2024-03-08T03:48:05;-0.70;99.90
29571;DHT22;16814;52.118;11.436;2024-03-08T03:50:40;-0.70;99.90
29571;DHT22;16814;52.118;11.436;2024-03-08T03:53:08;-0.60;99.90
29571;DHT22;16814;52.118;11.436;2024-03-08T03:55:35;-0.60;99.90
29571;DHT22;16814;52.118;11.436;2024-03-08T03:58:02;-0.70;99.90
29571;DHT22;16814;52.118;11.436;2024-03-08T04:00:29;-0.60;99.90
29571;DHT22;16814;52.118;11.436;2024-03-08T04:02:57;-0.70;99.90
29571;DHT22;16814;52.118;11.436;2024-03-08T04:05:32;-0.80;99.90
29571;DHT22;16814;52.118;11.436;2024-03-08T04:07:59;-0.70;99.90
29571;DHT22;16814;52.118;11.436;2024-03-08T04:10:26;-0.80;99.90
29571;DHT22;16814;52.118;11.436;2024-03-08T04:12:53;-0.70;99.90
29571;DHT22;16814;52.118;11.436;2024-03-08T04:15:19;-0.70;99.90
29571;DHT22;16814;52.118;11.436;2024-03-08T04:17:47;-0.90;99.90
29571;DHT22;16814;52.118;11.436;2024-03-08T04:20:15;-0.90;99.90
29571;DHT22;16814;52.118;11.436;2024-03-08T04:22:46;-0.90;99.90
29571;DHT22;16814;52.118;11.436;2024-03-08T04:25:14;-0.90;99.90
29571;DHT22;16814;52.118;11.436;2024-03-08T04:27:41;-0.90;99.90
29571;DHT22;16814;52.118;11.436;2024-03-08T04:30:08;-1.00;99.90
29571;DHT22;16814;52.118;11.436;2024-03-08T04:32:35;-1.00;99.90
29571;DHT22;16814;52.118;11.436;2024-03-08T04:35:02;-0.90;99.90
29571;DHT22;16814;52.118;11.436;2024-03-08T04:37:28;-1.10;99.90
29571;DHT22;16814;52.118;11.436;2024-03-08T04:40:02;-0.80;99.90
29571;DHT22;16814;52.118;11.436;2024-03-08T04:42:28;-1.00;99.90
29571;DHT22;16814;52.118;11.436;2024-03-08T04:44:58;-1.10;99.90
29571;DHT22;16814;52.118;11.436;2024-03-08T04:47:26;-1.20;99.90
29571;DHT22;16814;52.118;11.436;2024-03-08T04:49:52;-1.20;99.90
29571;DHT22;16814;52.118;11.436;2024-03-08T04:52:18;-1.30;99.90
29571;DHT22;16814;52.118;11.436;2024-03-08T04:54:45;-1.20;99.90
29571;DHT22;16814;52.118;11.436;2024-03-08T04:57:13;-1.20;99.90
29571;DHT22;16814;52.118;11.436;2024-03-08T04:59:40;-1.10;99.90
29571;DHT22;16814;52.118;11.436;2024-03-08T05:02:07;-1.10;99.90
29571;DHT22;16814;52.118;11.436;2024-03-08T05:04:34;-1.30;99.90
29571;DHT22;16814;52.118;11.436;2024-03-08T05:07:02;-1.40;99.90
29571;DHT22;16814;52.118;11.436;2024-03-08T05:09:29;-1.20;99.90
29571;DHT22;16814;52.118;11.436;2024-03-08T05:11:58;-1.20;99.90
29571;DHT22;16814;52.118;11.436;2024-03-08T05:14:25;-1.10;99.90
29571;DHT22;16814;52.118;11.436;2024-03-08T05:16:53;-1.10;99.90
29571;DHT22;16814;52.118;11.436;2024-03-08T05:19:21;-1.10;99.90
29571;DHT22;16814;52.118;11.436;2024-03-08T05:21:49;-1.10;99.90
29571;DHT22;16814;52.118;11.436;2024-03-08T05:24:16;-1.20;99.90
29571;DHT22;16814;52.118;11.436;2024-03-08T05:26:44;-1.10;99.90
29571;DHT22;16814;52.118;11.436;2024-03-08T05:29:10;-1.10;99.90
29571;DHT22;16814;52.118;11.436;2024-03-08T05:31:51;-1.10;99.90
29571;DHT22;16814;52.118;11.436;2024-03-08T05:34:25;-1.00;99.90
29571;DHT22;16814;52.118;11.436;2024-03-08T05:36:51;-1.10;99.90
29571;DHT22;16814;52.118;11.436;2024-03-08T05:39:18;-1.30;99.90
29571;DHT22;16814;52.118;11.436;2024-03-08T05:41:46;-1.20;99.90
29571;DHT22;16814;52.118;11.436;2024-03-08T05:44:13;-1.20;99.90
29571;DHT22;16814;52.118;11.436;2024-03-08T05:46:40;-1.20;99.90
29571;DHT22;16814;52.118;11.436;2024-03-08T05:49:06;-1.10;99.90
29571;DHT22;16814;52.118;11.436;2024-03-08T05:51:34;-1.00;99.90
29571;DHT22;16814;52.118;11.436;2024-03-08T05:54:07;-1.00;99.90
29571;DHT22;16814;52.118;11.436;2024-03-08T05:56:35;-1.00;99.90
29571;DHT22;16814;52.118;11.436;2024-03-08T05:59:01;-0.90;99.90
29571;DHT22;16814;52.118;11.436;2024-03-08T06:01:28;-0.80;99.90
29571;DHT22;16814;52.118;11.436;2024-03-08T06:03:56;-0.90;99.90
29571;DHT22;16814;52.118;11.436;2024-03-08T06:06:23;-0.90;99.90
29571;DHT22;16814;52.118;11.436;2024-03-08T06:08:50;-0.90;99.90
29571;DHT22;16814;52.118;11.436;2024-03-08T06:11:18;-0.70;99.90
29571;DHT22;16814;52.118;11.436;2024-03-08T06:13:47;-0.50;99.90
29571;DHT22;16814;52.118;11.436;2024-03-08T06:16:13;-0.30;99.90
29571;DHT22;16814;52.118;11.436;2024-03-08T06:18:39;-0.40;99.90
29571;DHT22;16814;52.118;11.436;2024-03-08T06:21:07;-0.50;99.90
29571;DHT22;16814;52.118;11.436;2024-03-08T06:23:37;-0.60;99.90
29571;DHT22;16814;52.118;11.436;2024-03-08T06:26:07;-0.60;99.90
29571;DHT22;16814;52.118;11.436;2024-03-08T06:28:32;-0.80;99.90
29571;DHT22;16814;52.118;11.436;2024-03-08T06:31:04;-0.80;99.90
29571;DHT22;16814;52.118;11.436;2024-03-08T06:33:31;-0.70;99.90
29571;DHT22;16814;52.118;11.436;2024-03-08T06:36:00;-0.70;99.90
29571;DHT22;16814;52.118;11.436;2024-03-08T06:38:27;-0.70;99.90
29571;DHT22;16814;52.118;11.436;2024-03-08T06:40:54;-0.60;99.90
29571;DHT22;16814;52.118;11.436;2024-03-08T06:43:22;-0.50;99.90
29571;DHT22;16814;52.118;11.436;2024-03-08T06:45:50;-0.50;99.90
29571;DHT22;16814;52.118;11.436;2024-03-08T06:48:18;-0.50;99.90
29571;DHT22;16814;52.118;11.436;2024-03-08T06:50:47;-0.30;99.90
29571;DHT22;16814;52.118;11.436;2024-03-08T06:53:13;-0.20;99.90
29571;DHT22;16814;52.118;11.436;2024-03-08T06:55:40;-0.30;99.90
29571;DHT22;16814;52.118;11.436;2024-03-08T06:58:07;-0.20;99.90
29571;DHT22;16814;52.118;11.436;2024-03-08T07:00:33;-0.30;99.90
29571;DHT22;16814;52.118;11.436;2024-03-08T07:03:00;-0.30;99.90
29571;DHT22;16814;52.118;11.436;2024-03-08T07:05:28;-0.20;99.90
29571;DHT22;16814;52.118;11.436;2024-03-08T07:07:56;-0.10;99.90
29571;DHT22;16814;52.118;11.436;2024-03-08T07:10:22;0.00;99.90
29571;DHT22;16814;52.118;11.436;2024-03-08T07:12:53;0.10;99.90
29571;DHT22;16814;52.118;11.436;2024-03-08T07:15:20;0.10;99.90
29571;DHT22;16814;52.118;11.436;2024-03-08T07:17:50;0.20;99.90
29571;DHT22;16814;52.118;11.436;2024-03-08T07:20:18;0.30;99.90
29571;DHT22;16814;52.118;11.436;2024-03-08T07:22:45;0.30;99.90
29571;DHT22;16814;52.118;11.436;2024-03-08T07:25:17;0.40;99.90
29571;DHT22;16814;52.118;11.436;2024-03-08T07:28:02;0.50;99.90
29571;DHT22;16814;52.118;11.436;2024-03-08T07:30:29;0.70;99.90
29571;DHT22;16814;52.118;11.436;2024-03-08T07:33:11;0.70;99.90
29571;DHT22;16814;52.118;11.436;2024-03-08T07:35:42;0.80;99.90
29571;DHT22;16814;52.118;11.436;2024-03-08T07:38:11;0.90;99.90
29571;DHT22;16814;52.118;11.436;2024-03-08T07:40:41;1.00;99.90
29571;DHT22;16814;52.118;11.436;2024-03-08T07:43:10;1.40;99.90
29571;DHT22;16814;52.118;11.436;2024-03-08T07:45:37;1.90;99.90
29571;DHT22;16814;52.118;11.436;2024-03-08T07:48:03;2.60;99.90
29571;DHT22;16814;52.118;11.436;2024-03-08T07:50:29;3.20;99.90
29571;DHT22;16814;52.118;11.436;2024-03-08T07:52:56;3.70;99.90
29571;DHT22;16814;52.118;11.436;2024-03-08T07:55:23;3.80;99.90
29571;DHT22;16814;52.118;11.436;2024-03-08T07:57:49;3.80;99.90
29571;DHT22;16814;52.118;11.436;2024-03-08T08:00:17;3.80;99.90
29571;DHT22;16814;52.118;11.436;2024-03-08T08:02:47;4.00;99.90
29571;DHT22;16814;52.118;11.436;2024-03-08T08:05:15;4.30;99.90
29571;DHT22;16814;52.118;11.436;2024-03-08T08:07:45;4.30;99.90
29571;DHT22;16814;52.118;11.436;2024-03-08T08:10:13;4.30;99.90
29571;DHT22;16814;52.118;11.436;2024-03-08T08:12:49;4.40;99.90
29571;DHT22;16814;52.118;11.436;2024-03-08T08:15:14;4.20;99.90
29571;DHT22;16814;52.118;11.436;2024-03-08T08:17:42;4.10;99.90
29571;DHT22;16814;52.118;11.436;2024-03-08T08:20:10;4.10;99.90
29571;DHT22;16814;52.118;11.436;2024-03-08T08:22:41;4.10;99.90
29571;DHT22;16814;52.118;11.436;2024-03-08T08:25:09;4.00;99.90
29571;DHT22;16814;52.118;11.436;2024-03-08T08:27:38;4.00;99.90
29571;DHT22;16814;52.118;11.436;2024-03-08T08:30:10;3.90;99.90
29571;DHT22;16814;52.118;11.436;2024-03-08T08:32:39;3.70;99.90
29571;DHT22;16814;52.118;11.436;2024-03-08T08:35:07;3.60;99.90
29571;DHT22;16814;52.118;11.436;2024-03-08T08:37:39;3.40;99.90
29571;DHT22;16814;52.118;11.436;2024-03-08T08:40:05;3.30;99.90
29571;DHT22;16814;52.118;11.436;2024-03-08T08:42:38;3.30;99.90
29571;DHT22;16814;52.118;11.436;2024-03-08T08:45:05;3.50;99.90
29571;DHT22;16814;52.118;11.436;2024-03-08T08:47:37;3.60;99.90
29571;DHT22;16814;52.118;11.436;2024-03-08T08:50:04;3.60;99.90
29571;DHT22;16814;52.118;11.436;2024-03-08T08:52:31;3.80;99.90
29571;DHT22;16814;52.118;11.436;2024-03-08T08:55:00;3.80;99.90
29571;DHT22;16814;52.118;11.436;2024-03-08T08:57:26;3.70;99.90
29571;DHT22;16814;52.118;11.436;2024-03-08T08:59:54;3.70;99.90
29571;DHT22;16814;52.118;11.436;2024-03-08T09:02:20;3.90;99.90
29571;DHT22;16814;52.118;11.436;2024-03-08T09:04:46;4.00;99.90
29571;DHT22;16814;52.118;11.436;2024-03-08T09:07:13;4.10;99.90
29571;DHT22;16814;52.118;11.436;2024-03-08T09:09:43;4.10;99.90
29571;DHT22;16814;52.118;11.436;2024-03-08T09:12:09;4.20;99.90
29571;DHT22;16814;52.118;11.436;2024-03-08T09:14:41;4.40;99.90
29571;DHT22;16814;52.118;11.436;2024-03-08T09:17:08;4.50;99.90
29571;DHT22;16814;52.118;11.436;2024-03-08T09:19:40;4.70;99.90
29571;DHT22;16814;52.118;11.436;2024-03-08T09:22:07;4.90;99.90
29571;DHT22;16814;52.118;11.436;2024-03-08T09:24:33;5.00;99.90
29571;DHT22;16814;52.118;11.436;2024-03-08T09:27:00;4.80;99.90
29571;DHT22;16814;52.118;11.436;2024-03-08T09:29:28;5.10;99.90
29571;DHT22;16814;52.118;11.436;2024-03-08T09:31:58;5.30;99.90
29571;DHT22;16814;52.118;11.436;2024-03-08T09:34:26;5.50;99.90
29571;DHT22;16814;52.118;11.436;2024-03-08T09:36:53;5.70;99.90
29571;DHT22;16814;52.118;11.436;2024-03-08T09:39:19;5.90;99.90
29571;DHT22;16814;52.118;11.436;2024-03-08T09:41:47;6.00;99.90
29571;DHT22;16814;52.118;11.436;2024-03-08T09:44:15;6.20;99.90
29571;DHT22;16814;52.118;11.436;2024-03-08T09:46:42;6.40;99.90
29571;DHT22;16814;52.118;11.436;2024-03-08T09:49:10;6.40;99.90
29571;DHT22;16814;52.118;11.436;2024-03-08T09:51:40;6.50;99.90
29571;DHT22;16814;52.118;11.436;2024-03-08T09:54:06;6.70;99.90
29571;DHT22;16814;52.118;11.436;2024-03-08T09:56:40;6.90;99.90
29571;DHT22;16814;52.118;11.436;2024-03-08T09:59:08;7.10;99.90
29571;DHT22;16814;52.118;11.436;2024-03-08T10:02:18;6.70;99.90
29571;DHT22;16814;52.118;11.436;2024-03-08T10:04:45;6.50;99.90
29571;DHT22;16814;52.118;11.436;2024-03-08T10:07:14;6.60;99.90
29571;DHT22;16814;52.118;11.436;2024-03-08T10:09:40;6.50;99.90
29571;DHT22;16814;52.118;11.436;2024-03-08T10:12:13;6.60;99.90
29571;DHT22;16814;52.118;11.436;2024-03-08T10:14:40;6.80;99.90
29571;DHT22;16814;52.118;11.436;2024-03-08T10:17:07;6.90;99.90
29571;DHT22;16814;52.118;11.436;2024-03-08T10:19:33;6.90;99.90
29571;DHT22;16814;52.118;11.436;2024-03-08T10:22:00;6.90;99.90
29571;DHT22;16814;52.118;11.436;2024-03-08T10:24:28;6.80;99.90
29571;DHT22;16814;52.118;11.436;2024-03-08T10:27:01;6.90;99.90
29571;DHT22;16814;52.118;11.436;2024-03-08T10:29:33;6.80;99.90
29571;DHT22;16814;52.118;11.436;2024-03-08T10:32:00;6.80;99.90
29571;DHT22;16814;52.118;11.436;2024-03-08T10:34:26;7.00;99.90
29571;DHT22;16814;52.118;11.436;2024-03-08T10:37:00;7.20;99.90
29571;DHT22;16814;52.118;11.436;2024-03-08T10:39:38;7.30;99.90
29571;DHT22;16814;52.118;11.436;2024-03-08T10:42:14;7.30;99.90
29571;DHT22;16814;52.118;11.436;2024-03-08T10:45:05;7.30;99.90
29571;DHT22;16814;52.118;11.436;2024-03-08T10:47:41;7.50;99.90
29571;DHT22;16814;52.118;11.436;2024-03-08T10:50:21;7.50;99.90
29571;DHT22;16814;52.118;11.436;2024-03-08T10:52:50;7.50;99.90
29571;DHT22;16814;52.118;11.436;2024-03-08T10:55:17;7.30;99.90
29571;DHT22;16814;52.118;11.436;2024-03-08T10:57:44;7.50;99.90
29571;DHT22;16814;52.118;11.436;2024-03-08T11:00:13;7.70;99.90
29571;DHT22;16814;52.118;11.436;2024-03-08T11:02:44;7.90;99.90
29571;DHT22;16814;52.118;11.436;2024-03-08T11:05:57;7.90;99.90
29571;DHT22;16814;52.118;11.436;2024-03-08T11:08:24;8.00;99.90
29571;DHT22;16814;52.118;11.436;2024-03-08T11:10:55;8.00;99.90
29571;DHT22;16814;52.118;11.436;2024-03-08T11:13:41;7.90;99.90
29571;DHT22;16814;52.118;11.436;2024-03-08T11:18:54;7.90;99.90
29571;DHT22;16814;52.118;11.436;2024-03-08T11:21:21;8.00;99.90
29571;DHT22;16814;52.118;11.436;2024-03-08T11:26:37;7.90;99.90
29571;DHT22;16814;52.118;11.436;2024-03-08T11:32:09;7.90;99.90
29571;DHT22;16814;52.118;11.436;2024-03-08T11:34:37;8.00;99.90
29571;DHT22;16814;52.118;11.436;2024-03-08T11:37:10;7.90;99.90
29571;DHT22;16814;52.118;11.436;2024-03-08T11:39:40;7.70;99.90
29571;DHT22;16814;52.118;11.436;2024-03-08T11:42:06;7.90;99.90
29571;DHT22;16814;52.118;11.436;2024-03-08T11:44:34;7.90;99.90
29571;DHT22;16814;52.118;11.436;2024-03-08T11:47:02;8.00;99.90
29571;DHT22;16814;52.118;11.436;2024-03-08T11:49:27;8.10;99.90
29571;DHT22;16814;52.118;11.436;2024-03-08T11:51:53;8.10;99.90
29571;DHT22;16814;52.118;11.436;2024-03-08T11:54:21;8.10;99.90
29571;DHT22;16814;52.118;11.436;2024-03-08T11:56:47;8.10;99.90
29571;DHT22;16814;52.118;11.436;2024-03-08T11:59:14;8.10;99.90
29571;DHT22;16814;52.118;11.436;2024-03-08T12:01:41;8.00;99.90
29571;DHT22;16814;52.118;11.436;2024-03-08T12:04:12;8.10;99.90
29571;DHT22;16814;52.118;11.436;2024-03-08T12:06:40;8.10;99.90
29571;DHT22;16814;52.118;11.436;2024-03-08T12:09:14;8.10;99.90
29571;DHT22;16814;52.118;11.436;2024-03-08T12:11:42;8.10;99.90
29571;DHT22;16814;52.118;11.436;2024-03-08T12:14:08;8.20;99.90
29571;DHT22;16814;52.118;11.436;2024-03-08T12:16:37;8.20;99.90
29571;DHT22;16814;52.118;11.436;2024-03-08T12:19:03;8.10;99.90
29571;DHT22;16814;52.118;11.436;2024-03-08T12:21:31;8.10;99.90
29571;DHT22;16814;52.118;11.436;2024-03-08T12:24:11;8.20;99.90
29571;DHT22;16814;52.118;11.436;2024-03-08T12:26:43;8.30;99.90
29571;DHT22;16814;52.118;11.436;2024-03-08T12:29:27;8.30;99.90
29571;DHT22;16814;52.118;11.436;2024-03-08T12:31:59;8.10;99.90
29571;DHT22;16814;52.118;11.436;2024-03-08T12:34:27;8.00;99.90
29571;DHT22;16814;52.118;11.436;2024-03-08T12:36:56;8.10;99.90
29571;DHT22;16814;52.118;11.436;2024-03-08T12:39:23;8.10;99.90
29571;DHT22;16814;52.118;11.436;2024-03-08T12:41:53;8.10;99.90
29571;DHT22;16814;52.118;11.436;2024-03-08T12:44:21;8.00;99.90
29571;DHT22;16814;52.118;11.436;2024-03-08T12:46:55;8.00;99.90
29571;DHT22;16814;52.118;11.436;2024-03-08T12:49:24;8.10;99.90
29571;DHT22;16814;52.118;11.436;2024-03-08T12:51:51;8.10;99.90
29571;DHT22;16814;52.118;11.436;2024-03-08T12:54:18;8.10;99.90
29571;DHT22;16814;52.118;11.436;2024-03-08T12:56:48;8.10;99.90
29571;DHT22;16814;52.118;11.436;2024-03-08T12:59:16;8.10;99.90
29571;DHT22;16814;52.118;11.436;2024-03-08T13:01:44;8.20;99.90
29571;DHT22;16814;52.118;11.436;2024-03-08T13:04:11;8.30;99.90
29571;DHT22;16814;52.118;11.436;2024-03-08T13:06:40;8.30;99.90
29571;DHT22;16814;52.118;11.436;2024-03-08T13:09:07;8.20;99.90
29571;DHT22;16814;52.118;11.436;2024-03-08T13:11:34;8.30;99.90
29571;DHT22;16814;52.118;11.436;2024-03-08T13:14:03;8.20;99.90
29571;DHT22;16814;52.118;11.436;2024-03-08T13:16:30;8.20;99.90
29571;DHT22;16814;52.118;11.436;2024-03-08T13:18:56;8.30;99.90
29571;DHT22;16814;52.118;11.436;2024-03-08T13:21:24;8.20;99.90
29571;DHT22;16814;52.118;11.436;2024-03-08T13:23:51;8.30;99.90
29571;DHT22;16814;52.118;11.436;2024-03-08T13:26:18;8.20;99.90
29571;DHT22;16814;52.118;11.436;2024-03-08T13:28:50;8.10;99.90
29571;DHT22;16814;52.118;11.436;2024-03-08T13:31:21;8.10;99.90
29571;DHT22;16814;52.118;11.436;2024-03-08T13:33:48;8.20;99.90
29571;DHT22;16814;52.118;11.436;2024-03-08T13:36:16;8.30;99.90
29571;DHT22;16814;52.118;11.436;2024-03-08T13:38:45;8.30;99.90
29571;DHT22;16814;52.118;11.436;2024-03-08T13:41:12;8.30;99.90
29571;DHT22;16814;52.118;11.436;2024-03-08T13:43:41;8.20;99.90
29571;DHT22;16814;52.118;11.436;2024-03-08T13:46:08;8.30;99.90
29571;DHT22;16814;52.118;11.436;2024-03-08T13:48:36;8.20;99.90
29571;DHT22;16814;52.118;11.436;2024-03-08T13:51:04;8.20;99.90
29571;DHT22;16814;52.118;11.436;2024-03-08T13:53:32;8.10;99.90
29571;DHT22;16814;52.118;11.436;2024-03-08T13:56:02;8.10;99.90
29571;DHT22;16814;52.118;11.436;2024-03-08T13:58:29;8.30;99.90
29571;DHT22;16814;52.118;11.436;2024-03-08T14:00:57;8.30;99.90
29571;DHT22;16814;52.118;11.436;2024-03-08T14:03:24;8.40;99.90
29571;DHT22;16814;52.118;11.436;2024-03-08T14:05:52;8.50;99.90
29571;DHT22;16814;52.118;11.436;2024-03-08T14:08:17;8.40;99.90
29571;DHT22;16814;52.118;11.436;2024-03-08T14:10:45;8.40;99.90
29571;DHT22;16814;52.118;11.436;2024-03-08T14:13:16;8.40;99.90
29571;DHT22;16814;52.118;11.436;2024-03-08T14:15:45;8.30;99.90
29571;DHT22;16814;52.118;11.436;2024-03-08T14:18:11;8.30;99.90
29571;DHT22;16814;52.118;11.436;2024-03-08T14:20:41;8.30;99.90
29571;DHT22;16814;52.118;11.436;2024-03-08T14:23:08;8.30;99.90
29571;DHT22;16814;52.118;11.436;2024-03-08T14:25:34;8.30;99.90
29571;DHT22;16814;52.118;11.436;2024-03-08T14:27:59;8.20;99.90
29571;DHT22;16814;52.118;11.436;2024-03-08T14:30:30;8.30;99.90
29571;DHT22;16814;52.118;11.436;2024-03-08T14:33:20;8.20;99.90
29571;DHT22;16814;52.118;11.436;2024-03-08T14:35:48;8.10;99.90
29571;DHT22;16814;52.118;11.436;2024-03-08T14:38:17;8.20;99.90
29571;DHT22;16814;52.118;11.436;2024-03-08T14:40:43;8.30;99.90
29571;DHT22;16814;52.118;11.436;2024-03-08T14:43:13;8.30;99.90
29571;DHT22;16814;52.118;11.436;2024-03-08T14:45:40;8.20;99.90
29571;DHT22;16814;52.118;11.436;2024-03-08T14:48:07;8.10;99.90
29571;DHT22;16814;52.118;11.436;2024-03-08T14:50:33;8.10;99.90
29571;DHT22;16814;52.118;11.436;2024-03-08T14:52:59;8.10;99.90
29571;DHT22;16814;52.118;11.436;2024-03-08T14:55:50;8.00;99.90
29571;DHT22;16814;52.118;11.436;2024-03-08T14:58:38;8.20;99.90
29571;DHT22;16814;52.118;11.436;2024-03-08T15:01:05;8.20;99.90
29571;DHT22;16814;52.118;11.436;2024-03-08T15:04:01;8.20;99.90
29571;DHT22;16814;52.118;11.436;2024-03-08T15:06:39;8.20;99.90
29571;DHT22;16814;52.118;11.436;2024-03-08T15:09:06;8.10;99.90
29571;DHT22;16814;52.118;11.436;2024-03-08T15:11:38;8.00;99.90
29571;DHT22;16814;52.118;11.436;2024-03-08T15:14:21;8.10;99.90
29571;DHT22;16814;52.118;11.436;2024-03-08T15:16:50;8.00;99.90
29571;DHT22;16814;52.118;11.436;2024-03-08T15:19:18;8.10;99.90
29571;DHT22;16814;52.118;11.436;2024-03-08T15:21:47;8.20;99.90
29571;DHT22;16814;52.118;11.436;2024-03-08T15:24:13;8.10;99.90
29571;DHT22;16814;52.118;11.436;2024-03-08T15:26:48;8.00;99.90
29571;DHT22;16814;52.118;11.436;2024-03-08T15:29:16;7.90;99.90
29571;DHT22;16814;52.118;11.436;2024-03-08T15:31:46;7.90;99.90
29571;DHT22;16814;52.118;11.436;2024-03-08T15:34:13;7.90;99.90
29571;DHT22;16814;52.118;11.436;2024-03-08T15:36:41;8.00;99.90
29571;DHT22;16814;52.118;11.436;2024-03-08T15:39:12;8.00;99.90
29571;DHT22;16814;52.118;11.436;2024-03-08T15:41:40;7.90;99.90
29571;DHT22;16814;52.118;11.436;2024-03-08T15:44:07;7.90;99.90
29571;DHT22;16814;52.118;11.436;2024-03-08T15:46:38;7.80;99.90